• Join FlightAware (Why Join?)
  • Login
  • US Flag 
10:09AM EDT


 

Airport Tracker/Info


-or-


 

Live Flight TrackerFlight Track Log ✈ CMP472 ✈ 11-Apr-2013 ✈ MPTO / PTY - KLAX

Flight Track Log - Related Links

Times and Time Zones

All times are in EDT time to prevent confusion due to time zone crossing. See the CMP472 flight status page for this flight to view local times or setup timezone preferences in your user account.

Time Position Orientation Groundspeed Altitude Reporting Facility
EDT Latitude Longitude Course Direction KTS MPH feet Rate Location/Type
01:04PM 9.0730 -79.3780 29° Northeast 186 214 400  Level FlightAware
01:05PM 9.0970 -79.3650 28° Northeast 189 217 1,800 2,400 Climbing FlightAware
01:05PM 9.1170 -79.3540 29° Northeast 186 214 2,600 2,040 Climbing FlightAware
01:05PM 9.1400 -79.3400 31° Northeast 200 230 3,700 1,560 Climbing FlightAware
01:06PM 9.1670 -79.3250 29° Northeast 238 274 4,200 1,080 Climbing FlightAware
01:06PM 9.1940 -79.3100 29° Northeast 263 303 4,700 1,800 Climbing FlightAware
01:07PM 9.2220 -79.2990 21° North 276 318 5,700 2,520 Climbing FlightAware
01:07PM 9.2470 -79.3070 342° North 279 321 6,600 2,580 Climbing FlightAware
01:07PM 9.2570 -79.3150 322° Northwest 280 322 7,000 2,400 Climbing FlightAware
01:08PM 9.2670 -79.3330 299° West 286 329 7,600 2,220 Climbing FlightAware
01:08PM 9.2830 -79.3710 293° West 293 337 8,700 2,160 Climbing FlightAware
01:08PM 9.2980 -79.4040 295° West 301 346 9,600 1,920 Climbing FlightAware
01:09PM 9.3250 -79.4650 294° West 325 374 11,000 1,380 Climbing FlightAware
01:10PM 9.3500 -79.5220 294° West 361 415 11,600 1,500 Climbing FlightAware
01:11PM 9.3810 -79.5930 294° West 370 426 13,200 2,100 Climbing FlightAware
01:11PM 9.4100 -79.6580 294° West 374 430 14,600 1,980 Climbing FlightAware
01:12PM 9.4380 -79.7200 295° West 380 437 15,900 1,800 Climbing FlightAware
01:13PM 9.4720 -79.7980 294° West 394 453 17,200 1,800 Climbing FlightAware
01:13PM 9.4980 -79.8570 294° West 397 457 18,300 1,740 Climbing FlightAware
01:14PM 9.5270 -79.9230 294° West 402 463 19,400 1,440 Climbing FlightAware
01:15PM 9.5660 -80.0110 294° West 413 475 20,500 1,380 Climbing FlightAware
01:15PM 9.5980 -80.0840 294° West 417 480 21,500 1,500 Climbing FlightAware
01:16PM 9.6330 -80.1640 294° West 418 481 22,700 1,380 Climbing FlightAware
01:17PM 9.6640 -80.2340 294° West 423 487 23,500 600 Climbing FlightAware
01:17PM 9.6860 -80.2900 292° West 423 487 23,500 1,080 Level FlightAware
01:18PM 9.7350 -80.3950 295° West 440 506 25,100 1,500 Climbing FlightAware
01:19PM 9.7670 -80.4690 294° West 445 512 25,800 960 Climbing FlightAware
01:20PM 9.8030 -80.5500 294° West 449 517 26,500 960 Climbing FlightAware
01:20PM 9.8300 -80.6130 294° West 453 521 27,000 360 Climbing FlightAware
01:21PM 9.8610 -80.6910 292° West 453 521 27,000  Level FlightAware
01:22PM 9.8950 -80.7750 292° West 453 521 27,000  Level FlightAware
01:22PM 9.9210 -80.8420 292° West 453 521 27,000  Level FlightAware
01:23PM 9.9480 -80.9090 292° West 453 521 27,000  Level FlightAware
01:24PM 9.9750 -80.9760 292° West 453 521 27,000  Level FlightAware
01:26PM 10.0839 -81.1419 304° West  Level FlightAware Approximate
01:27PM 10.1480 -81.2396 304° West  Level FlightAware Approximate
01:28PM 10.2120 -81.3373 304° West  Level FlightAware Approximate
01:29PM 10.2760 -81.4350 304° West  Level FlightAware Approximate
01:30PM 10.3399 -81.5328 304° West  Level FlightAware Approximate
01:31PM 10.4038 -81.6306 304° West  Level FlightAware Approximate
01:32PM 10.4677 -81.7284 304° West  Level FlightAware Approximate
01:33PM 10.5316 -81.8263 304° West  Level FlightAware Approximate
01:34PM 10.5954 -81.9242 304° West  Level FlightAware Approximate
01:35PM 10.6592 -82.0222 304° West  Level FlightAware Approximate
01:36PM 10.7230 -82.1202 304° West  Level FlightAware Approximate
01:37PM 10.7867 -82.2183 304° West  Level FlightAware Approximate
01:38PM 10.8504 -82.3164 303° West  Level FlightAware Approximate
01:39PM 10.9141 -82.4145 303° West  Level FlightAware Approximate
01:40PM 10.9777 -82.5127 303° West  Level FlightAware Approximate
01:41PM 11.0414 -82.6109 303° West  Level FlightAware Approximate
01:42PM 11.1036 -82.7118 301° West  Level FlightAware Approximate
01:43PM 11.1637 -82.8123 301° West  Level FlightAware Approximate
01:44PM 11.2237 -82.9129 301° West  Level FlightAware Approximate
01:45PM 11.2837 -83.0136 301° West  Level FlightAware Approximate
01:46PM 11.3437 -83.1143 301° West  Level FlightAware Approximate
01:47PM 11.4036 -83.2150 301° West  Level FlightAware Approximate
01:48PM 11.4635 -83.3158 301° West  Level FlightAware Approximate
01:49PM 11.5234 -83.4166 301° West  Level FlightAware Approximate
01:50PM 11.5832 -83.5174 301° West  Level FlightAware Approximate
01:51PM 11.6430 -83.6183 301° West  Level FlightAware Approximate
01:52PM 11.7027 -83.7192 301° West  Level FlightAware Approximate
01:53PM 11.7625 -83.8202 301° West  Level FlightAware Approximate
01:54PM 11.8222 -83.9212 301° West  Level FlightAware Approximate
01:55PM 11.8818 -84.0223 301° West  Level FlightAware Approximate
01:56PM 11.9414 -84.1234 301° West  Level FlightAware Approximate
01:57PM 12.0010 -84.2246 301° West  Level FlightAware Approximate
01:58PM 12.0605 -84.3258 301° West  Level FlightAware Approximate
01:59PM 12.1201 -84.4270 301° West  Level FlightAware Approximate
02:00PM 12.1795 -84.5283 301° West  Level FlightAware Approximate
02:01PM 12.2389 -84.6297 301° West  Level FlightAware Approximate
02:02PM 12.2984 -84.7310 301° West  Level FlightAware Approximate
02:03PM 12.3577 -84.8325 301° West  Level FlightAware Approximate
02:04PM 12.4170 -84.9340 301° West  Level FlightAware Approximate
02:05PM 12.4768 -85.0352 301° West  Level FlightAware Approximate
02:06PM 12.5365 -85.1364 301° West  Level FlightAware Approximate
02:07PM 12.5963 -85.2377 301° West  Level FlightAware Approximate
02:08PM 12.6559 -85.3391 301° West  Level FlightAware Approximate
02:09PM 12.7156 -85.4405 301° West  Level FlightAware Approximate
02:10PM 12.7752 -85.5419 301° West  Level FlightAware Approximate
02:11PM 12.8347 -85.6434 301° West  Level FlightAware Approximate
02:12PM 12.8942 -85.7450 301° West  Level FlightAware Approximate
02:13PM 12.9539 -85.8464 301° West  Level FlightAware Approximate
02:14PM 13.0138 -85.9478 301° West  Level FlightAware Approximate
02:15PM 13.0736 -86.0493 301° West  Level FlightAware Approximate
02:16PM 13.1334 -86.1507 301° West  Level FlightAware Approximate
02:17PM 13.1931 -86.2523 301° West  Level FlightAware Approximate
02:18PM 13.2528 -86.3539 301° West  Level FlightAware Approximate
02:19PM 13.3125 -86.4555 301° West  Level FlightAware Approximate
02:20PM 13.3721 -86.5572 301° West  Level FlightAware Approximate
02:21PM 13.4315 -86.6590 301° West  Level FlightAware Approximate
02:22PM 13.4905 -86.7611 301° West  Level FlightAware Approximate
02:23PM 13.5495 -86.8632 301° West  Level FlightAware Approximate
02:24PM 13.6085 -86.9654 301° West  Level FlightAware Approximate
02:25PM 13.6674 -87.0677 301° West  Level FlightAware Approximate
02:26PM 13.7262 -87.1700 301° West  Level FlightAware Approximate
02:27PM 13.7851 -87.2723 301° West  Level FlightAware Approximate
02:28PM 13.8438 -87.3747 301° West  Level FlightAware Approximate
02:29PM 13.9026 -87.4772 301° West  Level FlightAware Approximate
02:30PM 13.9613 -87.5797 301° West  Level FlightAware Approximate
02:31PM 14.0199 -87.6822 301° West  Level FlightAware Approximate
02:32PM 14.0785 -87.7848 301° West  Level FlightAware Approximate
02:33PM 14.1371 -87.8875 300° West  Level FlightAware Approximate
02:34PM 14.1956 -87.9902 300° West  Level FlightAware Approximate
02:35PM 14.2541 -88.0930 300° West  Level FlightAware Approximate
02:36PM 14.3125 -88.1958 300° West  Level FlightAware Approximate
02:37PM 14.3709 -88.2987 300° West  Level FlightAware Approximate
02:38PM 14.4289 -88.4018 300° West  Level FlightAware Approximate
02:39PM 14.4865 -88.5052 300° West  Level FlightAware Approximate
02:40PM 14.5441 -88.6086 300° West  Level FlightAware Approximate
02:41PM 14.6017 -88.7121 300° West  Level FlightAware Approximate
02:42PM 14.6592 -88.8156 300° West  Level FlightAware Approximate
02:43PM 14.7166 -88.9192 300° West  Level FlightAware Approximate
02:44PM 14.7740 -89.0229 300° West  Level FlightAware Approximate
02:45PM 14.8315 -89.1265 300° West  Level FlightAware Approximate
02:46PM 14.8893 -89.2299 300° West  Level FlightAware Approximate
02:47PM 14.9471 -89.3334 300° West  Level FlightAware Approximate
02:48PM 15.0049 -89.4370 300° West  Level FlightAware Approximate
02:49PM 15.0626 -89.5406 300° West  Level FlightAware Approximate
02:50PM 15.1203 -89.6442 300° West  Level FlightAware Approximate
02:51PM 15.1779 -89.7480 300° West  Level FlightAware Approximate
02:52PM 15.2354 -89.8518 300° West  Level FlightAware Approximate
02:53PM 15.2930 -89.9556 300° West  Level FlightAware Approximate
02:54PM 15.3504 -90.0595 300° West  Level FlightAware Approximate
02:55PM 15.4079 -90.1634 300° West  Level FlightAware Approximate
02:56PM 15.4652 -90.2674 300° West  Level FlightAware Approximate
02:57PM 15.5225 -90.3715 300° West  Level FlightAware Approximate
02:58PM 15.5798 -90.4756 300° West  Level FlightAware Approximate
02:59PM 15.6371 -90.5798 300° West  Level FlightAware Approximate
03:00PM 15.6942 -90.6840 300° West  Level FlightAware Approximate
03:01PM 15.7514 -90.7883 300° West  Level FlightAware Approximate
03:02PM 15.8084 -90.8927 300° West  Level FlightAware Approximate
03:03PM 15.8655 -90.9971 300° West  Level FlightAware Approximate
03:04PM 15.9225 -91.1016 300° West  Level FlightAware Approximate
03:05PM 15.9794 -91.2061 300° West  Level FlightAware Approximate
03:06PM 16.0363 -91.3107 300° West  Level FlightAware Approximate
03:07PM 16.1008 -91.4098 310° West  Level FlightAware Approximate
03:08PM 16.1743 -91.5026 310° West  Level FlightAware Approximate
03:09PM 16.2478 -91.5954 309° West  Level FlightAware Approximate
03:10PM 16.3212 -91.6883 309° West  Level FlightAware Approximate
03:11PM 16.3945 -91.7813 309° West  Level FlightAware Approximate
03:12PM 16.4678 -91.8744 309° West  Level FlightAware Approximate
03:13PM 16.5411 -91.9675 309° West  Level FlightAware Approximate
03:14PM 16.6144 -92.0607 309° West  Level FlightAware Approximate
03:15PM 16.6877 -92.1539 309° West  Level FlightAware Approximate
03:16PM 16.7609 -92.2471 309° West  Level FlightAware Approximate
03:17PM 16.8341 -92.3405 309° West  Level FlightAware Approximate
03:18PM 16.9072 -92.4339 309° West  Level FlightAware Approximate
03:19PM 16.9803 -92.5274 309° West  Level FlightAware Approximate
03:20PM 17.0534 -92.6210 309° West  Level FlightAware Approximate
03:21PM 17.1265 -92.7145 309° West  Level FlightAware Approximate
03:22PM 17.1997 -92.8081 309° West  Level FlightAware Approximate
03:23PM 17.2727 -92.9017 309° West  Level FlightAware Approximate
03:24PM 17.3458 -92.9955 309° West  Level FlightAware Approximate
03:25PM 17.4188 -93.0893 309° West  Level FlightAware Approximate
03:26PM 17.4917 -93.1832 309° West  Level FlightAware Approximate
03:27PM 17.5646 -93.2772 309° West  Level FlightAware Approximate
03:28PM 17.6375 -93.3712 309° West  Level FlightAware Approximate
03:29PM 17.7103 -93.4653 309° West  Level FlightAware Approximate
03:30PM 17.7831 -93.5595 309° West  Level FlightAware Approximate
03:31PM 17.8558 -93.6538 309° West  Level FlightAware Approximate
03:32PM 17.9284 -93.7481 309° West  Level FlightAware Approximate
03:33PM 18.0011 -93.8425 309° West  Level FlightAware Approximate
03:34PM 18.0737 -93.9370 309° West  Level FlightAware Approximate
03:35PM 18.1462 -94.0316 309° West  Level FlightAware Approximate
03:36PM 18.2187 -94.1263 309° West  Level FlightAware Approximate
03:37PM 18.2911 -94.2210 309° West  Level FlightAware Approximate
03:38PM 18.3636 -94.3158 309° West  Level FlightAware Approximate
03:39PM 18.4359 -94.4107 309° West  Level FlightAware Approximate
03:40PM 18.5082 -94.5057 309° West  Level FlightAware Approximate
03:41PM 18.5805 -94.6007 309° West  Level FlightAware Approximate
03:42PM 18.6527 -94.6958 309° West  Level FlightAware Approximate
03:43PM 18.7248 -94.7911 309° West  Level FlightAware Approximate
03:44PM 18.7969 -94.8864 309° West  Level FlightAware Approximate
03:45PM 18.8690 -94.9817 309° West  Level FlightAware Approximate
03:46PM 18.9410 -95.0772 309° West  Level FlightAware Approximate
03:47PM 19.0130 -95.1727 309° West  Level FlightAware Approximate
03:48PM 19.0851 -95.2682 309° West  Level FlightAware Approximate
03:49PM 19.1570 -95.3639 309° West  Level FlightAware Approximate
03:50PM 19.2290 -95.4596 309° West  Level FlightAware Approximate
03:51PM 19.3009 -95.5554 308° West  Level FlightAware Approximate
03:52PM 19.3727 -95.6512 308° West  Level FlightAware Approximate
03:53PM 19.4445 -95.7472 308° West  Level FlightAware Approximate
03:54PM 19.5162 -95.8432 308° West  Level FlightAware Approximate
03:55PM 19.5879 -95.9393 308° West  Level FlightAware Approximate
03:56PM 19.6595 -96.0356 308° West  Level FlightAware Approximate
03:57PM 19.7311 -96.1319 308° West  Level FlightAware Approximate
03:58PM 19.8026 -96.2282 308° West  Level FlightAware Approximate
03:59PM 19.8741 -96.3247 308° West  Level FlightAware Approximate
04:00PM 19.9455 -96.4213 308° West  Level FlightAware Approximate
04:01PM 20.0168 -96.5179 308° West  Level FlightAware Approximate
04:02PM 20.0882 -96.6146 308° West  Level FlightAware Approximate
04:03PM 20.1594 -96.7114 308° West  Level FlightAware Approximate
04:04PM 20.2335 -96.8057 312° West  Level FlightAware Approximate
04:05PM 20.3115 -96.8965 313° West  Level FlightAware Approximate
04:06PM 20.3903 -96.9866 313° West  Level FlightAware Approximate
04:07PM 20.4690 -97.0769 313° West  Level FlightAware Approximate
04:08PM 20.5477 -97.1672 313° West  Level FlightAware Approximate
04:09PM 20.6263 -97.2575 313° West  Level FlightAware Approximate
04:10PM 20.7049 -97.3480 313° West  Level FlightAware Approximate
04:11PM 20.7834 -97.4386 313° West  Level FlightAware Approximate
04:12PM 20.8619 -97.5293 313° West  Level FlightAware Approximate
04:13PM 20.9403 -97.6200 313° West  Level FlightAware Approximate
04:14PM 21.0187 -97.7109 313° West  Level FlightAware Approximate
04:15PM 21.0971 -97.8019 313° West  Level FlightAware Approximate
04:16PM 21.1754 -97.8929 313° West  Level FlightAware Approximate
04:17PM 21.2536 -97.9841 313° West  Level FlightAware Approximate
04:18PM 21.3318 -98.0753 313° West  Level FlightAware Approximate
04:19PM 21.4099 -98.1667 313° West  Level FlightAware Approximate
04:20PM 21.4880 -98.2581 313° West  Level FlightAware Approximate
04:21PM 21.5661 -98.3497 313° West  Level FlightAware Approximate
04:22PM 21.6441 -98.4413 312° West  Level FlightAware Approximate
04:23PM 21.7220 -98.5330 312° West  Level FlightAware Approximate
04:24PM 21.7999 -98.6249 312° West  Level FlightAware Approximate
04:25PM 21.8777 -98.7168 312° West  Level FlightAware Approximate
04:26PM 21.9555 -98.8089 312° West  Level FlightAware Approximate
04:27PM 22.0333 -98.9010 312° West  Level FlightAware Approximate
04:28PM 22.1110 -98.9932 312° West  Level FlightAware Approximate
04:29PM 22.1891 -99.0851 313° West  Level FlightAware Approximate
04:30PM 22.2673 -99.1769 313° West  Level FlightAware Approximate
04:31PM 22.3454 -99.2689 313° West  Level FlightAware Approximate
04:32PM 22.4228 -99.3617 311° West  Level FlightAware Approximate
04:33PM 22.4984 -99.4561 311° West  Level FlightAware Approximate
04:34PM 22.5741 -99.5507 311° West  Level FlightAware Approximate
04:35PM 22.6496 -99.6453 311° West  Level FlightAware Approximate
04:36PM 22.7273 -99.7379 313° West  Level FlightAware Approximate
04:37PM 22.8056 -99.8300 313° West  Level FlightAware Approximate
04:38PM 22.8838 -99.9223 313° West  Level FlightAware Approximate
04:39PM 22.9620 -100.0146 313° West  Level FlightAware Approximate
04:40PM 23.0401 -100.1070 313° West  Level FlightAware Approximate
04:41PM 23.1181 -100.1996 313° West  Level FlightAware Approximate
04:42PM 23.1961 -100.2923 312° West  Level FlightAware Approximate
04:43PM 23.2722 -100.3868 311° West  Level FlightAware Approximate
04:44PM 23.3475 -100.4822 311° West  Level FlightAware Approximate
04:45PM 23.4228 -100.5776 311° West  Level FlightAware Approximate
04:46PM 23.5006 -100.6705 313° West  Level FlightAware Approximate
04:47PM 23.5788 -100.7633 313° West  Level FlightAware Approximate
04:48PM 23.6569 -100.8562 313° West  Level FlightAware Approximate
04:49PM 23.7350 -100.9492 313° West  Level FlightAware Approximate
04:50PM 23.8130 -101.0423 312° West  Level FlightAware Approximate
04:51PM 23.8909 -101.1355 312° West  Level FlightAware Approximate
04:52PM 23.9688 -101.2288 312° West  Level FlightAware Approximate
04:53PM 24.0466 -101.3222 312° West  Level FlightAware Approximate
04:54PM 24.1244 -101.4158 312° West  Level FlightAware Approximate
04:55PM 24.1978 -101.5133 306° West  Level FlightAware Approximate
04:56PM 24.2659 -101.6156 306° West  Level FlightAware Approximate
04:57PM 24.3339 -101.7180 306° West  Level FlightAware Approximate
04:58PM 24.4019 -101.8206 306° West  Level FlightAware Approximate
04:59PM 24.4698 -101.9232 306° West  Level FlightAware Approximate
05:00PM 24.5376 -102.0260 306° West  Level FlightAware Approximate
05:01PM 24.6054 -102.1288 306° West  Level FlightAware Approximate
05:02PM 24.6731 -102.2318 306° West  Level FlightAware Approximate
05:03PM 24.7407 -102.3349 306° West  Level FlightAware Approximate
05:04PM 24.8083 -102.4381 306° West  Level FlightAware Approximate
05:05PM 24.8757 -102.5414 306° West  Level FlightAware Approximate
05:06PM 24.9432 -102.6448 306° West  Level FlightAware Approximate
05:07PM 25.0105 -102.7483 306° West  Level FlightAware Approximate
05:08PM 25.0778 -102.8520 306° West  Level FlightAware Approximate
05:09PM 25.1450 -102.9557 306° West  Level FlightAware Approximate
05:10PM 25.2121 -103.0596 306° West  Level FlightAware Approximate
05:11PM 25.2805 -103.1625 306° West  Level FlightAware Approximate
05:12PM 25.3489 -103.2654 306° West  Level FlightAware Approximate
05:13PM 25.4173 -103.3685 306° West  Level FlightAware Approximate
05:14PM 25.4856 -103.4717 306° West  Level FlightAware Approximate
05:15PM 25.5538 -103.5750 306° West  Level FlightAware Approximate
05:16PM 25.6219 -103.6784 306° West  Level FlightAware Approximate
05:17PM 25.6900 -103.7819 306° West  Level FlightAware Approximate
05:18PM 25.7580 -103.8856 306° West  Level FlightAware Approximate
05:19PM 25.8259 -103.9893 306° West  Level FlightAware Approximate
05:20PM 25.8937 -104.0932 306° West  Level FlightAware Approximate
05:21PM 25.9615 -104.1972 306° West  Level FlightAware Approximate
05:22PM 26.0292 -104.3013 306° West  Level FlightAware Approximate
05:23PM 26.0963 -104.4061 305° West  Level FlightAware Approximate
05:24PM 26.1630 -104.5111 305° West  Level FlightAware Approximate
05:25PM 26.2296 -104.6162 305° West  Level FlightAware Approximate
05:26PM 26.2962 -104.7215 305° West  Level FlightAware Approximate
05:27PM 26.3626 -104.8269 305° West  Level FlightAware Approximate
05:27PM 27.3670 -106.3540 305° West 411 473 38,000  Level FlightAware
05:28PM 26.4290 -104.9324 305° West  Level FlightAware Approximate
05:28PM 27.4080 -106.4220 304° West 411 473 38,000  Level FlightAware
05:28PM 27.4440 -106.4820 304° West 411 473 38,000  Level FlightAware
05:29PM 27.5100 -106.5830 306° West 421 484 38,000  Level FlightAware
05:30PM 27.5530 -106.6550 304° West 421 484 38,000  Level FlightAware
05:31PM 27.5990 -106.7320 304° West 421 484 38,000  Level FlightAware
05:31PM 27.6360 -106.7940 304° West 421 484 38,000  Level FlightAware
05:32PM 27.6730 -106.8560 304° West 421 484 38,000  Level FlightAware
05:33PM 27.7100 -106.9180 304° West 421 484 38,000  Level FlightAware
05:33PM 27.7470 -106.9800 304° West 421 484 38,000  Level FlightAware
05:34PM 27.7840 -107.0420 304° West 421 484 38,000  Level FlightAware
05:35PM 27.8300 -107.1200 304° West 421 484 38,000  Level FlightAware
05:36PM 27.8670 -107.1820 304° West 421 484 38,000  Level FlightAware
05:36PM 27.9040 -107.2440 304° West 421 484 38,000  Level FlightAware
05:37PM 27.9410 -107.3060 304° West 421 484 38,000  Level FlightAware
05:38PM 27.9790 -107.3680 305° West 421 484 38,000  Level FlightAware
05:38PM 28.0250 -107.4460 304° West 421 484 38,000  Level FlightAware
05:39PM 28.0620 -107.5080 304° West 421 484 38,000  Level FlightAware
05:42PM 28.2078 -107.7831 301° West  Level FlightAware Approximate
05:43PM 28.2671 -107.8956 301° West  Level FlightAware Approximate
05:44PM 28.3264 -108.0082 301° West  Level FlightAware Approximate
05:45PM 28.3855 -108.1209 301° West  Level FlightAware Approximate
05:46PM 28.4446 -108.2338 301° West  Level FlightAware Approximate
05:47PM 28.5036 -108.3467 301° West  Level FlightAware Approximate
05:48PM 28.5625 -108.4599 301° West  Level FlightAware Approximate
05:49PM 28.6258 -108.5712 304° West  Level FlightAware Approximate
05:50PM 28.6907 -108.6802 304° West  Level FlightAware Approximate
05:51PM 28.7554 -108.7892 304° West  Level FlightAware Approximate
05:52PM 28.8201 -108.8985 304° West  Level FlightAware Approximate
05:53PM 28.8846 -109.0078 304° West  Level FlightAware Approximate
05:54PM 28.9491 -109.1173 304° West  Level FlightAware Approximate
05:55PM 29.0135 -109.2269 304° West  Level FlightAware Approximate
05:56PM 29.0779 -109.3366 304° West  Level FlightAware Approximate
05:57PM 29.1421 -109.4465 304° West  Level FlightAware Approximate
05:58PM 29.2062 -109.5566 304° West  Level FlightAware Approximate
05:59PM 29.2702 -109.6667 304° West  Level FlightAware Approximate
06:00PM 29.3342 -109.7770 304° West  Level FlightAware Approximate
06:01PM 29.3981 -109.8875 304° West  Level FlightAware Approximate
06:02PM 29.4618 -109.9981 304° West  Level FlightAware Approximate
06:03PM 29.5255 -110.1088 303° West  Level FlightAware Approximate
06:04PM 29.5891 -110.2196 303° West  Level FlightAware Approximate
06:05PM 29.6526 -110.3306 303° West  Level FlightAware Approximate
06:06PM 29.7160 -110.4418 303° West  Level FlightAware Approximate
06:07PM 29.7793 -110.5531 303° West  Level FlightAware Approximate
06:08PM 29.8425 -110.6645 303° West  Level FlightAware Approximate
06:08PM 29.9290 -110.6660 303° West 394 453 38,000  Level FlightAware
06:08PM 29.9740 -110.7450 303° West 393 452 38,000  Level FlightAware
06:09PM 30.0140 -110.8160 303° West 392 451 38,000  Level FlightAware
06:10PM 30.0580 -110.8950 303° West 392 451 38,000  Level FlightAware
06:11PM 30.0960 -110.9630 303° West 392 451 38,000  Level FlightAware
06:11PM 30.1360 -111.0350 303° West 392 451 38,000  Level FlightAware
06:12PM 30.1810 -111.1160 303° West 393 452 38,000  Level FlightAware
06:13PM 30.2190 -111.1830 303° West 393 452 38,000  Level FlightAware
06:13PM 30.2640 -111.2650 302° West 395 455 38,000  Level FlightAware
06:14PM 30.3030 -111.3350 303° West 398 458 38,000  Level FlightAware
06:15PM 30.3440 -111.4080 303° West 400 460 38,000  Level FlightAware
06:15PM 30.3890 -111.4900 302° West 401 461 38,000  Level FlightAware
06:16PM 30.4300 -111.5640 303° West 401 461 38,000  Level FlightAware
06:17PM 30.4600 -111.6190 302° West 399 459 38,000  Level FlightAware
06:18PM 30.5090 -111.7080 303° West 397 457 38,000  Level FlightAware
06:18PM 30.5420 -111.7690 302° West 397 457 38,000  Level FlightAware
06:19PM 30.6110 -111.8940 303° West 397 457 38,000  Level FlightAware
06:20PM 30.6490 -111.9640 302° West 396 456 38,000  Level FlightAware
06:21PM 30.6890 -112.0360 303° West 395 455 38,000  Level FlightAware
06:21PM 30.7330 -112.1170 302° West 395 455 38,000  Level FlightAware
06:22PM 30.7740 -112.1930 302° West 393 452 38,000  Level FlightAware
06:23PM 30.8240 -112.2850 302° West 391 450 38,000  Level FlightAware
06:24PM 30.8670 -112.3650 302° West 385 443 38,000  Level FlightAware
06:24PM 30.8980 -112.4220 302° West 388 447 38,000  Level FlightAware
06:25PM 30.9410 -112.5020 302° West 388 447 38,000  Level FlightAware
06:26PM 30.9870 -112.5880 302° West 385 443 38,000  Level FlightAware
06:26PM 31.0250 -112.6580 302° West 392 451 38,000  Level FlightAware
06:27PM 31.0690 -112.7400 302° West 392 451 38,000  Level FlightAware
06:28PM 31.1070 -112.8110 302° West 392 451 38,000  Level FlightAware
06:28PM 31.1460 -112.8840 302° West 392 451 38,000  Level FlightAware
06:29PM 31.1880 -112.9640 302° West 393 452 38,000  Level FlightAware
06:30PM 31.2280 -113.0380 302° West 387 445 38,000  Level FlightAware
06:31PM 31.2700 -113.1170 302° West 385 443 38,000  Level FlightAware
06:32PM 31.3210 -113.2140 302° West 377 434 38,000  Level FlightAware
06:32PM 31.3580 -113.2840 302° West 376 433 38,000  Level FlightAware
06:33PM 31.3860 -113.3400 300° West 376 433 38,000  Level FlightAware
06:34PM 31.4450 -113.4390 305° West 376 433 38,000  Level FlightAware
06:34PM 31.4740 -113.4910 303° West 376 433 38,000  Level FlightAware
06:35PM 31.5140 -113.5640 303° West 376 433 38,000  Level FlightAware
06:36PM 31.5460 -113.6220 303° West 376 433 38,000  Level FlightAware
06:36PM 31.5790 -113.6800 304° West 376 433 38,000  Level FlightAware
06:37PM 31.6110 -113.7390 303° West 376 433 38,000  Level FlightAware
06:38PM 31.6430 -113.7970 303° West 376 433 38,000  Level FlightAware
06:39PM 31.6830 -113.8700 303° West 376 433 38,000  Level FlightAware
06:39PM 31.7150 -113.9280 303° West 376 433 38,000  Level FlightAware
06:40PM 31.7480 -113.9860 304° West 376 433 38,000  Level FlightAware
06:40PM 31.8250 -114.1267 302° West 387 445 38,000  Level Los Angeles Center
06:41PM 31.7800 -114.0450 303° West 376 433 38,000  Level FlightAware
06:41PM 31.8120 -114.1030 303° West 376 433 38,000  Level FlightAware
06:41PM 31.8844 -114.2333 303° West 388 447 38,000  Level Los Angeles Center
06:42PM 31.8520 -114.1760 303° West 376 433 38,000  Level FlightAware
06:42PM 31.9436 -114.3408 303° West 390 449 38,000  Level Los Angeles Center
06:43PM 31.8850 -114.2340 304° West 376 433 38,000  Level FlightAware
06:43PM 31.9170 -114.2930 303° West 376 433 38,000 -180 Level FlightAware
06:44PM 32.0136 -114.4706 302° West 390 449 37,900 -120 Descending Los Angeles Center
06:45PM 32.0719 -114.5781 303° West 389 448 37,900  Level Los Angeles Center
06:46PM 32.0403 -114.5287 302° West  Level FlightAware Approximate
06:46PM 32.1306 -114.6836 303° West 386 444 37,900  Level Los Angeles Center
06:47PM 32.1872 -114.7903 302° West 385 443 37,900  Level Los Angeles Center
06:48PM 32.2447 -114.8967 303° West 384 442 37,900  Level Los Angeles Center
06:49PM 32.3025 -115.0031 303° West 385 443 38,000  Climbing Los Angeles Center
06:50PM 32.3722 -115.1333 302° West 389 448 37,900  Descending Los Angeles Center
06:51PM 32.4303 -115.2411 303° West 389 448 38,000  Climbing Los Angeles Center
06:52PM 32.4861 -115.3442 303° West 387 445 38,000  Level Los Angeles Center
06:57PM 32.7970 -115.9270 303° West 386 444 38,000  Level FlightAware
06:58PM 32.8250 -115.9830 301° West 386 444 38,000 -1,920 Level FlightAware
06:59PM 32.8820 -116.0880 303° West 368 423 35,000 -3,000 Descending FlightAware
06:59PM 32.9240 -116.1690 302° West 374 430 32,800 -2,700 Descending FlightAware
07:00PM 32.9590 -116.2370 302° West 372 428 31,200 -2,220 Descending FlightAware
07:01PM 32.9970 -116.3100 302° West 364 419 29,700 -2,220 Descending FlightAware
07:01PM 33.0350 -116.3820 302° West 354 407 28,100 -2,220 Descending FlightAware
07:02PM 33.0690 -116.4470 302° West 348 400 26,800 -2,100 Descending FlightAware
07:03PM 33.1070 -116.5220 301° West 342 394 25,200 -1,980 Descending FlightAware
07:04PM 33.1370 -116.5860 299° West 338 389 24,000 -900 Descending FlightAware
07:04PM 33.1490 -116.6580 281° West 344 396 24,000 -300 Level FlightAware
07:05PM 33.1600 -116.7400 279° West 345 397 23,600 -1,740 Descending FlightAware
07:06PM 33.1690 -116.8200 278° West 354 407 21,600 -2,880 Descending FlightAware
07:06PM 33.1790 -116.8990 279° West 357 411 19,800 -2,340 Descending FlightAware
07:07PM 33.1870 -116.9650 278° West 355 409 18,500 -2,100 Descending FlightAware
07:08PM 33.1970 -117.0480 278° West 346 398 17,000 -2,160 Descending FlightAware
07:08PM 33.2080 -117.1450 278° West 335 386 15,300 -2,280 Descending FlightAware
07:09PM 33.2170 -117.2180 278° West 335 386 13,600 -2,220 Descending FlightAware
07:10PM 33.2260 -117.2900 279° West 326 375 12,400 -1,080 Descending FlightAware
07:11PM 33.2350 -117.3680 278° West 311 358 12,100 -240 Descending FlightAware
07:11PM 33.2410 -117.4340 276° West 309 356 12,100  Level FlightAware
07:12PM 33.2460 -117.5120 274° West 302 348 12,100 -360 Level FlightAware
07:13PM 33.2620 -117.5710 288° West 284 327 11,600 -660 Descending FlightAware
07:13PM 33.3120 -117.6140 324° Northwest 285 328 11,200 -1,020 Descending FlightAware
07:14PM 33.3540 -117.6520 323° Northwest 282 325 10,200 -840 Descending FlightAware
07:15PM 33.3950 -117.6900 322° Northwest 279 321 10,100 -120 Descending FlightAware
07:15PM 33.4390 -117.7320 321° Northwest 278 320 10,100 -300 Level FlightAware
07:16PM 33.4660 -117.7570 322° Northwest 280 322 9,800 -1,080 Descending FlightAware
07:16PM 33.4800 -117.7700 322° Northwest 282 325 9,400 -1,500 Descending FlightAware
07:17PM 33.5100 -117.7980 322° Northwest 279 321 8,700 -1,440 Descending FlightAware
07:17PM 33.5370 -117.8230 322° Northwest 278 320 8,100 -660 Descending FlightAware
07:18PM 33.5670 -117.8510 322° Northwest 274 315 8,100 -120 Level FlightAware
07:18PM 33.5970 -117.8800 321° Northwest 274 315 8,000 -900 Descending FlightAware
07:18PM 33.6220 -117.9030 323° Northwest 280 322 7,300 -1,020 Descending FlightAware
07:19PM 33.6530 -117.9320 322° Northwest 276 318 7,100 -240 Descending FlightAware
07:19PM 33.6780 -117.9560 321° Northwest 274 315 7,100  Level FlightAware
07:20PM 33.7080 -117.9840 322° Northwest 272 313 7,100  Level FlightAware
07:20PM 33.7380 -118.0120 322° Northwest 274 315 7,100  Level FlightAware
07:21PM 33.7630 -118.0360 321° Northwest 274 315 7,100  Level FlightAware
07:21PM 33.7970 -118.0560 334° Northwest 277 319 7,100  Level FlightAware
07:22PM 33.8270 -118.0660 345° North 275 316 7,100 -660 Level FlightAware
07:22PM 33.8630 -118.0780 345° North 274 315 6,500 -1,200 Descending FlightAware
07:23PM 33.9000 -118.0900 345° North 260 299 5,900 -1,020 Descending FlightAware
07:23PM 33.9290 -118.1000 344° North 240 276 5,600 -900 Descending FlightAware
07:23PM 33.9410 -118.1080 331° Northwest 227 261 5,300 -1,200 Descending FlightAware
07:24PM 33.9510 -118.1250 305° West 218 251 5,000 -1,500 Descending FlightAware
07:24PM 33.9590 -118.1510 290° West 221 254 4,300 -1,140 Descending FlightAware
07:25PM 33.9580 -118.1850 268° West 222 255 4,000 -1,020 Descending FlightAware
07:25PM 33.9540 -118.2210 262° West 217 250 3,300 -1,680 Descending FlightAware
07:25PM 33.9510 -118.2430 261° West 216 249 2,600 -1,620 Descending FlightAware
07:26PM 33.9460 -118.2960 264° West 176 203 1,600 -900 Descending FlightAware
07:27PM 33.9440 -118.3190 264° West 176 203 1,600 -840 Level FlightAware
07:27PM 33.9422 -118.3386 264° West 184 212 900 -960 Descending Los Angeles Center
07:28PM 33.9436 -118.3850 272° West 167 192 200 -720 Descending Los Angeles Center
07:30PM 33.9333 -118.4000 296° West  Level FlightAware Approximate
07:37PM 33.9425 -118.4081 296° West  Level Estimated